Time;durP1;ratioP1;P1;durP2;ratioP2;P2;SDS_P1;SDS_P2;PMS_P1;PMS_P2;Temp;Humidity;BMP_temperature;BMP_pressure;BME280_temperature;BME280_humidity;BME280_pressure;Samples;Min_cycle;Max_cycle;Signal;HPM_P1;HPM_P2
2020/12/07 00:00:42;;;;;;;31.58;12.07;;;5.50;99.90;;;;;;5060993;28;20069;-79
2020/12/07 00:03:08;;;;;;;30.02;12.15;;;5.50;99.90;;;;;;5045376;28;20423;-79
2020/12/07 00:05:35;;;;;;;27.05;11.52;;;5.50;99.90;;;;;;5044490;28;20032;-78
2020/12/07 00:08:01;;;;;;;28.77;11.23;;;5.50;99.90;;;;;;5060889;28;20039;-77
2020/12/07 00:10:27;;;;;;;31.23;12.48;;;5.50;99.90;;;;;;5045538;28;20018;-78
2020/12/07 00:12:53;;;;;;;27.35;11.35;;;5.50;99.90;;;;;;5044148;28;20048;-80
2020/12/07 00:15:18;;;;;;;25.88;11.27;;;5.50;99.90;;;;;;5043397;28;20025;-79
2020/12/07 00:17:44;;;;;;;24.92;10.85;;;5.50;99.90;;;;;;5044391;28;20032;-78
2020/12/07 00:20:10;;;;;;;28.98;11.07;;;5.40;99.90;;;;;;5060490;28;20536;-79
2020/12/07 00:22:36;;;;;;;26.25;10.73;;;5.40;99.90;;;;;;5045093;28;20044;-80
2020/12/07 00:25:03;;;;;;;34.25;11.82;;;5.40;99.90;;;;;;5060419;28;20021;-78
2020/12/07 00:27:31;;;;;;;28.15;11.10;;;5.40;99.90;;;;;;5043660;28;20034;-79
2020/12/07 00:29:57;;;;;;;34.28;12.18;;;5.40;99.90;;;;;;5060529;28;20029;-79
2020/12/07 00:32:24;;;;;;;30.05;12.15;;;5.40;99.90;;;;;;5043805;28;20043;-80
2020/12/07 00:34:51;;;;;;;35.70;12.52;;;5.40;99.90;;;;;;5045063;28;20025;-80
2020/12/07 00:37:18;;;;;;;31.45;10.30;;;5.50;99.90;;;;;;5044019;28;20022;-79
2020/12/07 00:39:43;;;;;;;38.17;11.70;;;5.40;99.90;;;;;;5044003;28;20022;-77
2020/12/07 00:42:09;;;;;;;34.90;12.65;;;5.40;99.90;;;;;;5045067;28;20048;-79
2020/12/07 00:44:36;;;;;;;30.83;12.80;;;5.40;99.90;;;;;;5043700;28;20033;-79
2020/12/07 00:47:03;;;;;;;28.55;11.57;;;5.40;99.90;;;;;;5047018;28;20025;-78
2020/12/07 00:49:28;;;;;;;29.73;10.98;;;5.40;99.90;;;;;;5060340;28;20473;-78
2020/12/07 00:51:54;;;;;;;34.53;11.40;;;5.40;99.90;;;;;;5043551;28;20044;-79
2020/12/07 00:54:19;;;;;;;28.88;11.57;;;5.50;99.90;;;;;;5044719;28;20032;-78
2020/12/07 00:56:51;;;;;;;29.17;11.52;;;5.40;99.90;;;;;;5043537;28;20045;-78
2020/12/07 00:59:17;;;;;;;27.20;11.73;;;5.50;99.90;;;;;;5043573;28;20022;-79
2020/12/07 01:01:42;;;;;;;35.22;12.48;;;5.50;99.90;;;;;;5043602;28;20151;-78
2020/12/07 01:04:08;;;;;;;33.58;10.57;;;5.50;99.90;;;;;;5044412;28;20049;-80
2020/12/07 01:06:33;;;;;;;30.73;12.18;;;5.50;99.90;;;;;;5044690;28;20021;-79
2020/12/07 01:08:59;;;;;;;31.50;12.50;;;5.40;99.90;;;;;;5044508;28;20045;-78
2020/12/07 01:11:25;;;;;;;34.10;13.18;;;5.40;99.90;;;;;;5059719;28;20024;-77
2020/12/07 01:13:51;;;;;;;37.47;11.70;;;5.40;99.90;;;;;;5044649;28;20017;-78
2020/12/07 01:16:19;;;;;;;33.38;12.40;;;5.50;99.90;;;;;;5044820;28;20041;-79
2020/12/07 01:18:51;;;;;;;30.77;11.32;;;5.40;99.90;;;;;;5043394;28;20037;-78
2020/12/07 01:21:18;;;;;;;34.67;13.00;;;5.40;99.90;;;;;;5060134;28;20026;-79
2020/12/07 01:23:44;;;;;;;30.92;11.85;;;5.40;99.90;;;;;;5044699;28;20026;-79
2020/12/07 01:26:11;;;;;;;35.17;11.75;;;5.50;99.90;;;;;;5043113;28;20033;-78
2020/12/07 01:28:38;;;;;;;28.30;11.23;;;5.40;99.90;;;;;;5047276;28;20041;-76
2020/12/07 01:31:03;;;;;;;26.40;10.45;;;5.50;99.90;;;;;;5048620;28;20060;-78
2020/12/07 01:33:29;;;;;;;37.13;12.80;;;5.40;99.90;;;;;;5047358;28;20017;-78
2020/12/07 01:35:55;;;;;;;46.40;12.93;;;5.50;99.90;;;;;;5063761;28;20022;-78
2020/12/07 01:38:21;;;;;;;35.17;11.88;;;5.40;99.90;;;;;;5063922;28;20074;-78
2020/12/07 01:40:48;;;;;;;40.25;12.57;;;5.40;99.90;;;;;;5046978;28;20140;-79
2020/12/07 01:43:14;;;;;;;39.45;13.57;;;5.50;99.90;;;;;;5047292;28;20025;-78
2020/12/07 01:45:39;;;;;;;28.33;11.75;;;5.40;99.90;;;;;;5047964;28;20018;-79
2020/12/07 01:48:05;;;;;;;30.08;11.35;;;5.50;99.90;;;;;;5046781;28;20053;-79
2020/12/07 01:50:31;;;;;;;26.13;9.65;;;5.50;99.90;;;;;;5048208;28;20029;-79
2020/12/07 01:52:59;;;;;;;28.80;11.02;;;5.50;99.90;;;;;;5048142;28;20100;-77
2020/12/07 01:55:25;;;;;;;32.03;13.40;;;5.40;99.90;;;;;;5048082;28;20033;-79
2020/12/07 01:57:51;;;;;;;40.72;12.60;;;5.40;99.90;;;;;;5063441;28;20094;-80
2020/12/07 02:00:17;;;;;;;39.15;13.18;;;5.30;99.90;;;;;;5063653;28;20049;-81
2020/12/07 02:02:43;;;;;;;37.03;14.10;;;5.30;99.90;;;;;;5046352;28;20056;-78
2020/12/07 02:05:08;;;;;;;27.27;11.80;;;5.40;99.90;;;;;;5048638;28;20480;-78
2020/12/07 02:07:34;;;;;;;23.25;10.57;;;5.40;99.90;;;;;;5047984;28;20196;-79
2020/12/07 02:09:59;;;;;;;38.17;12.50;;;5.40;99.90;;;;;;5063172;28;20026;-79
2020/12/07 02:12:25;;;;;;;32.45;12.50;;;5.40;99.90;;;;;;5047523;28;20108;-79
2020/12/07 02:14:51;;;;;;;28.98;11.38;;;5.40;99.90;;;;;;5062911;28;20449;-79
2020/12/07 02:17:18;;;;;;;36.08;10.38;;;5.30;99.90;;;;;;5047866;28;20022;-80
2020/12/07 02:19:48;;;;;;;29.92;12.23;;;5.30;99.90;;;;;;5048118;28;20064;-79
2020/12/07 02:22:13;;;;;;;29.42;11.48;;;5.30;99.90;;;;;;5063245;28;20021;-78
2020/12/07 02:24:39;;;;;;;29.02;11.85;;;5.30;99.90;;;;;;5046480;28;20025;-78
2020/12/07 02:27:04;;;;;;;35.65;11.70;;;5.20;99.90;;;;;;5046743;28;20014;-78
2020/12/07 02:29:30;;;;;;;31.48;11.63;;;5.20;99.90;;;;;;5049551;28;20077;-79
2020/12/07 02:32:12;;;;;;;38.47;12.10;;;5.10;99.90;;;;;;5047452;28;20021;-79
2020/12/07 02:34:39;;;;;;;32.03;11.90;;;5.10;99.90;;;;;;5046128;28;20029;-78
2020/12/07 02:37:05;;;;;;;35.50;10.60;;;5.10;99.90;;;;;;5047432;28;20024;-77
2020/12/07 02:39:30;;;;;;;32.67;12.88;;;5.20;99.90;;;;;;5061578;28;20036;-79
2020/12/07 02:41:56;;;;;;;28.83;11.48;;;5.10;99.90;;;;;;5047307;28;20037;-79
2020/12/07 02:44:21;;;;;;;33.08;12.07;;;5.10;99.90;;;;;;5047346;28;20032;-78
2020/12/07 02:46:47;;;;;;;34.88;11.55;;;5.20;99.90;;;;;;5047333;28;20033;-78
2020/12/07 02:49:13;;;;;;;26.10;12.38;;;5.20;99.90;;;;;;5047438;28;20033;-79
2020/12/07 02:51:38;;;;;;;25.88;12.02;;;5.20;99.90;;;;;;5047140;28;20036;-78
2020/12/07 02:54:04;;;;;;;25.58;10.25;;;5.20;99.90;;;;;;5047256;28;20104;-79
2020/12/07 02:56:29;;;;;;;29.25;11.02;;;5.20;99.90;;;;;;5047220;28;20029;-77
2020/12/07 02:58:55;;;;;;;26.42;12.32;;;5.10;99.90;;;;;;5045386;28;20116;-77
2020/12/07 03:01:21;;;;;;;26.08;12.13;;;5.10;99.90;;;;;;5047179;28;20032;-78
2020/12/07 03:03:49;;;;;;;34.72;12.32;;;5.10;99.90;;;;;;5046594;28;20056;-79
2020/12/07 03:06:15;;;;;;;31.60;10.05;;;5.10;99.90;;;;;;5046086;28;20025;-78
2020/12/07 03:08:41;;;;;;;25.05;12.52;;;5.10;99.90;;;;;;5047126;28;20115;-78
2020/12/07 03:11:07;;;;;;;29.40;12.95;;;5.20;99.90;;;;;;5046774;28;20421;-78
2020/12/07 03:13:32;;;;;;;35.42;12.93;;;5.20;99.90;;;;;;5062007;28;20017;-78
2020/12/07 03:15:58;;;;;;;35.53;11.80;;;5.20;99.90;;;;;;5045617;28;20017;-78
2020/12/07 03:18:23;;;;;;;38.45;11.52;;;5.20;99.90;;;;;;5046748;28;20456;-79
2020/12/07 03:20:49;;;;;;;30.65;12.30;;;5.10;99.90;;;;;;5062184;28;20030;-77
2020/12/07 03:23:16;;;;;;;30.67;11.18;;;5.20;99.90;;;;;;5048308;28;20022;-77
2020/12/07 03:25:41;;;;;;;37.50;11.88;;;5.10;99.90;;;;;;5046532;28;20048;-77
2020/12/07 03:28:07;;;;;;;36.83;11.90;;;5.10;99.90;;;;;;5046108;28;20041;-78
2020/12/07 03:30:32;;;;;;;25.58;11.77;;;5.10;99.90;;;;;;5046317;28;20025;-78
2020/12/07 03:32:58;;;;;;;38.28;12.70;;;5.10;99.90;;;;;;5061739;28;20067;-77
2020/12/07 03:35:23;;;;;;;26.77;10.18;;;5.10;99.90;;;;;;5046201;28;20021;-77
2020/12/07 03:37:49;;;;;;;33.42;12.68;;;5.20;99.90;;;;;;5044760;28;20022;-78
2020/12/07 03:40:18;;;;;;;28.30;11.38;;;5.20;99.90;;;;;;5046291;28;20048;-78
2020/12/07 03:42:44;;;;;;;32.72;10.77;;;5.20;99.90;;;;;;5046374;28;20066;-77
2020/12/07 03:45:09;;;;;;;27.13;11.52;;;5.20;99.90;;;;;;5045998;28;20085;-77
2020/12/07 03:47:35;;;;;;;25.35;10.60;;;5.20;99.90;;;;;;5044491;28;20091;-78
2020/12/07 03:50:00;;;;;;;26.48;10.25;;;5.20;99.90;;;;;;5061019;28;20021;-77
2020/12/07 03:52:26;;;;;;;26.38;11.88;;;5.20;99.90;;;;;;5045979;28;20067;-77
2020/12/07 03:54:51;;;;;;;32.55;12.40;;;5.20;99.90;;;;;;5045465;28;20028;-77
2020/12/07 03:57:17;;;;;;;27.38;10.88;;;5.20;99.90;;;;;;5045968;28;20014;-77
2020/12/07 03:59:43;;;;;;;21.08;10.48;;;5.30;99.90;;;;;;5046218;28;20037;-78
2020/12/07 04:02:08;;;;;;;41.08;12.07;;;5.30;99.90;;;;;;5045622;28;20072;-77
2020/12/07 04:04:53;;;;;;;33.33;11.88;;;5.30;99.90;;;;;;5060704;28;20045;-79
2020/12/07 04:07:19;;;;;;;46.28;12.68;;;5.20;99.90;;;;;;5045789;28;20405;-78
2020/12/07 04:09:45;;;;;;;27.48;10.88;;;5.20;99.90;;;;;;5044662;28;20061;-77
2020/12/07 04:12:10;;;;;;;26.33;12.45;;;5.20;99.90;;;;;;5045510;28;20029;-78
2020/12/07 04:14:36;;;;;;;33.47;12.35;;;5.20;99.90;;;;;;5060626;28;20045;-76
2020/12/07 04:17:02;;;;;;;41.75;11.90;;;5.20;99.90;;;;;;5045314;28;20028;-76
2020/12/07 04:19:27;;;;;;;36.88;12.50;;;5.20;99.90;;;;;;5045511;28;20413;-77
2020/12/07 04:21:53;;;;;;;30.02;11.73;;;5.20;99.90;;;;;;5045501;28;20037;-77
2020/12/07 04:24:18;;;;;;;30.33;12.55;;;5.20;99.90;;;;;;5060714;28;20056;-78
2020/12/07 04:26:44;;;;;;;33.53;11.15;;;5.20;99.90;;;;;;5045319;28;20036;-77
2020/12/07 04:29:10;;;;;;;37.10;13.85;;;5.20;99.90;;;;;;5045121;28;20029;-78
2020/12/07 04:31:35;;;;;;;25.80;11.52;;;5.20;99.90;;;;;;5060456;28;20044;-79
2020/12/07 04:34:01;;;;;;;23.92;11.02;;;5.20;99.90;;;;;;5045110;28;20056;-77
2020/12/07 04:36:27;;;;;;;27.42;10.43;;;5.10;99.90;;;;;;5060298;28;20052;-77
2020/12/07 04:38:52;;;;;;;27.27;11.13;;;5.10;99.90;;;;;;5045148;28;20022;-78
2020/12/07 04:41:18;;;;;;;33.00;12.48;;;5.10;99.90;;;;;;5045438;28;20022;-77
2020/12/07 04:43:47;;;;;;;27.80;10.73;;;5.10;99.90;;;;;;5043875;28;20093;-77
2020/12/07 04:46:13;;;;;;;32.22;10.52;;;5.10;99.90;;;;;;5043890;28;20025;-76
2020/12/07 04:48:41;;;;;;;32.30;11.00;;;5.10;99.90;;;;;;5044911;28;20041;-77
2020/12/07 04:51:08;;;;;;;36.67;11.93;;;5.10;99.90;;;;;;5044696;28;20029;-77
2020/12/07 04:53:35;;;;;;;34.10;12.55;;;5.00;99.90;;;;;;5043296;28;20034;-77
2020/12/07 04:56:01;;;;;;;33.03;12.07;;;5.00;99.90;;;;;;5045006;28;20378;-77
2020/12/07 04:58:27;;;;;;;26.17;10.48;;;5.00;99.90;;;;;;5044848;28;20457;-78
2020/12/07 05:00:53;;;;;;;32.15;11.27;;;5.00;99.90;;;;;;5042887;28;20064;-77
2020/12/07 05:03:18;;;;;;;32.20;11.23;;;5.00;99.90;;;;;;5044486;28;20042;-77
2020/12/07 05:05:44;;;;;;;25.17;11.25;;;5.00;99.90;;;;;;5045011;28;20048;-77
2020/12/07 05:08:10;;;;;;;20.55;9.73;;;5.00;99.90;;;;;;5043188;28;20040;-77
2020/12/07 05:10:42;;;;;;;26.55;11.48;;;5.00;99.90;;;;;;5043205;28;20053;-77
2020/12/07 05:15:49;;;;;;;28.48;11.15;;;5.00;99.90;;;;;;5044964;28;20029;-78
2020/12/07 05:18:16;;;;;;;29.38;11.38;;;5.00;99.90;;;;;;5045106;28;20087;-78
2020/12/07 05:20:42;;;;;;;31.27;10.80;;;5.00;99.90;;;;;;5044645;28;20617;-77
2020/12/07 05:23:10;;;;;;;26.52;11.77;;;5.00;99.90;;;;;;5059712;28;20049;-77
2020/12/07 05:25:36;;;;;;;28.83;11.00;;;5.00;99.90;;;;;;5044754;28;20895;-77
2020/12/07 05:28:05;;;;;;;25.88;12.30;;;5.00;99.90;;;;;;5044348;28;20030;-77
2020/12/07 05:30:34;;;;;;;25.35;9.32;;;5.00;99.90;;;;;;5044713;28;20013;-77
2020/12/07 05:33:00;;;;;;;22.98;10.95;;;5.00;99.90;;;;;;5044811;28;20041;-77
2020/12/07 05:35:26;;;;;;;33.00;11.75;;;5.10;99.90;;;;;;5044514;28;20030;-77
2020/12/07 05:37:51;;;;;;;27.63;10.88;;;5.00;99.90;;;;;;5044537;28;20025;-77
2020/12/07 05:40:18;;;;;;;26.17;10.43;;;5.00;99.90;;;;;;5044565;28;20022;-78
2020/12/07 05:42:44;;;;;;;21.30;9.18;;;4.90;99.90;;;;;;5044606;28;20033;-77
2020/12/07 05:45:10;;;;;;;27.20;12.02;;;4.90;99.90;;;;;;5043281;28;20079;-76
2020/12/07 05:47:38;;;;;;;30.05;11.18;;;4.90;99.90;;;;;;5042874;28;20808;-77
2020/12/07 05:50:06;;;;;;;25.70;9.15;;;4.90;99.90;;;;;;5044393;28;20022;-77
2020/12/07 05:52:44;;;;;;;35.00;12.50;;;4.90;99.90;;;;;;5044476;28;20053;-76
2020/12/07 05:55:10;;;;;;;29.55;9.98;;;4.90;99.90;;;;;;5059654;28;20036;-77
2020/12/07 05:58:06;;;;;;;27.63;10.68;;;4.90;99.90;;;;;;5044217;28;20041;-77
2020/12/07 06:00:34;;;;;;;25.98;12.32;;;4.90;99.90;;;;;;5043759;28;20061;-77
2020/12/07 06:03:02;;;;;;;36.40;11.27;;;4.90;99.90;;;;;;5044073;28;20120;-77
2020/12/07 06:05:28;;;;;;;22.83;9.75;;;4.90;99.90;;;;;;5059329;28;20021;-77
2020/12/07 06:08:04;;;;;;;26.00;11.52;;;4.90;99.90;;;;;;5042578;28;20101;-79
2020/12/07 06:10:36;;;;;;;27.70;10.65;;;4.90;99.90;;;;;;5043835;28;20018;-77
2020/12/07 06:13:04;;;;;;;35.67;11.50;;;4.80;99.90;;;;;;5061121;28;20032;-78
2020/12/07 06:15:31;;;;;;;26.38;11.88;;;4.90;99.90;;;;;;5047715;28;20029;-77
2020/12/07 06:17:56;;;;;;;28.98;10.40;;;4.80;99.90;;;;;;5046562;28;20156;-78
2020/12/07 06:20:33;;;;;;;39.95;12.52;;;4.90;99.90;;;;;;5063201;28;20148;-77
2020/12/07 06:23:01;;;;;;;35.13;12.80;;;4.80;99.90;;;;;;5047737;28;20025;-77
2020/12/07 06:25:33;;;;;;;30.85;11.20;;;4.90;99.90;;;;;;5047516;28;20083;-77
2020/12/07 06:28:03;;;;;;;24.83;10.27;;;4.90;99.90;;;;;;5047334;28;20033;-77
2020/12/07 06:30:50;;;;;;;26.10;10.75;;;4.90;99.90;;;;;;5047430;28;20458;-78
2020/12/07 06:33:19;;;;;;;27.55;10.70;;;4.90;99.90;;;;;;5047594;28;20033;-78
2020/12/07 06:35:47;;;;;;;30.08;10.45;;;4.90;99.90;;;;;;5046581;28;20025;-77
2020/12/07 06:38:13;;;;;;;33.55;11.82;;;4.90;99.90;;;;;;5047415;28;20077;-77
2020/12/07 06:40:39;;;;;;;31.35;11.50;;;4.90;99.90;;;;;;5047062;28;20026;-77
2020/12/07 06:43:16;;;;;;;28.30;11.43;;;4.80;99.90;;;;;;5045477;28;20028;-77
2020/12/07 06:45:42;;;;;;;35.28;12.63;;;4.90;99.90;;;;;;5047163;28;20029;-77
2020/12/07 06:48:12;;;;;;;29.70;11.60;;;4.90;99.90;;;;;;5046977;28;20057;-76
2020/12/07 06:50:40;;;;;;;35.65;12.02;;;4.90;99.90;;;;;;5045674;28;20026;-75
2020/12/07 06:55:56;;;;;;;27.40;11.45;;;4.90;99.90;;;;;;5046821;28;20061;-76
2020/12/07 06:58:36;;;;;;;30.80;10.90;;;4.90;99.90;;;;;;5046200;28;20017;-76
2020/12/07 07:01:09;;;;;;;19.95;9.82;;;4.80;99.90;;;;;;5047227;28;20036;-75
2020/12/07 07:03:35;;;;;;;32.05;8.77;;;4.80;99.90;;;;;;5046699;28;20069;-74
2020/12/07 07:06:10;;;;;;;32.90;11.95;;;4.80;99.90;;;;;;5046480;28;20026;-74
2020/12/07 07:08:37;;;;;;;26.35;10.80;;;4.70;99.90;;;;;;5045745;28;20620;-74
2020/12/07 07:11:05;;;;;;;27.95;10.75;;;4.70;99.90;;;;;;5046470;28;20047;-74
2020/12/07 07:13:31;;;;;;;29.10;11.80;;;4.70;99.90;;;;;;5046467;28;20013;-74
2020/12/07 07:15:57;;;;;;;26.02;11.48;;;4.70;99.90;;;;;;5046411;28;20029;-75
2020/12/07 07:18:23;;;;;;;30.60;12.10;;;4.70;99.90;;;;;;5046468;28;20036;-75
2020/12/07 07:20:51;;;;;;;26.42;11.88;;;4.80;99.90;;;;;;5046595;28;20485;-77
2020/12/07 07:23:18;;;;;;;32.70;11.38;;;4.70;99.90;;;;;;5045147;28;20060;-75
2020/12/07 07:26:11;;;;;;;27.00;9.85;;;4.70;99.90;;;;;;5044402;28;20096;-74
2020/12/07 07:28:38;;;;;;;24.83;10.13;;;4.70;99.90;;;;;;5046327;28;20034;-75
2020/12/07 07:31:04;;;;;;;30.08;12.05;;;4.70;99.90;;;;;;5044695;28;20017;-74
2020/12/07 07:33:31;;;;;;;21.30;9.85;;;4.70;99.90;;;;;;5046298;28;20026;-75
2020/12/07 07:35:57;;;;;;;28.15;9.88;;;4.70;99.90;;;;;;5046409;28;20100;-74
2020/12/07 07:38:31;;;;;;;24.35;10.55;;;4.70;99.90;;;;;;5044902;28;20025;-74
2020/12/07 07:40:57;;;;;;;27.60;10.55;;;4.70;99.90;;;;;;5044304;28;20099;-73
2020/12/07 07:43:27;;;;;;;22.00;10.93;;;4.70;99.90;;;;;;5044708;28;20025;-76
2020/12/07 07:45:57;;;;;;;30.23;11.60;;;4.70;99.90;;;;;;5044485;28;20026;-77
2020/12/07 07:48:44;;;;;;;26.20;8.95;;;4.70;99.90;;;;;;5044749;28;20029;-75
2020/12/07 07:52:12;;;;;;;27.60;9.98;;;4.60;99.90;;;;;;5046012;28;20031;-76
2020/12/07 08:11:23;;;;;;;31.65;11.18;;;4.70;99.90;;;;;;5046413;28;20048;-74
2020/12/07 08:15:58;;;;;;;26.17;11.00;;;4.60;99.90;;;;;;5065286;28;20407;-75
2020/12/07 08:18:34;;;;;;;28.48;9.50;;;4.60;99.90;;;;;;5061948;28;20081;-76
2020/12/07 08:21:02;;;;;;;23.15;9.48;;;4.60;99.90;;;;;;5064801;28;20028;-75
2020/12/07 08:23:32;;;;;;;19.67;9.32;;;4.60;99.90;;;;;;5065200;28;20016;-77
2020/12/07 08:26:01;;;;;;;22.17;9.63;;;4.60;99.90;;;;;;5065127;28;20057;-75
2020/12/07 08:28:30;;;;;;;22.25;11.02;;;4.60;99.90;;;;;;5065036;28;20035;-75
2020/12/07 08:31:09;;;;;;;22.02;9.32;;;4.70;99.90;;;;;;5065047;28;20040;-75
2020/12/07 08:33:57;;;;;;;30.85;10.70;;;4.60;99.90;;;;;;5062352;28;20021;-77
2020/12/07 08:36:23;;;;;;;19.30;8.90;;;4.60;99.90;;;;;;5042686;28;20051;-77
2020/12/07 08:38:50;;;;;;;23.50;9.55;;;4.60;99.90;;;;;;5043753;28;20085;-75
2020/12/07 08:41:25;;;;;;;20.75;9.25;;;4.60;99.90;;;;;;5045073;28;20045;-76
2020/12/07 08:43:56;;;;;;;24.90;10.15;;;4.60;99.90;;;;;;5043483;28;20036;-77
2020/12/07 08:46:23;;;;;;;25.23;10.82;;;4.70;99.90;;;;;;5042828;28;20017;-75
2020/12/07 08:48:49;;;;;;;23.20;10.93;;;4.70;99.90;;;;;;5044670;28;20029;-77
2020/12/07 08:51:23;;;;;;;18.27;8.80;;;4.70;99.90;;;;;;5044827;28;20026;-77
2020/12/07 08:53:50;;;;;;;25.95;10.27;;;4.70;99.90;;;;;;5044766;28;20316;-75
2020/12/07 08:56:16;;;;;;;28.30;11.55;;;4.70;99.90;;;;;;5045030;28;20112;-74
2020/12/07 08:58:42;;;;;;;18.92;9.52;;;4.70;99.90;;;;;;5047885;28;20017;-76
2020/12/07 09:01:09;;;;;;;27.50;10.20;;;4.80;99.90;;;;;;5062258;28;20386;-75
2020/12/07 09:03:36;;;;;;;30.95;10.35;;;4.80;99.90;;;;;;5063678;28;20037;-75
2020/12/07 09:06:03;;;;;;;16.00;8.15;;;5.00;99.90;;;;;;5063950;28;20020;-75
2020/12/07 09:08:29;;;;;;;26.98;10.57;;;4.90;99.90;;;;;;5063996;28;20037;-76
2020/12/07 09:10:55;;;;;;;18.85;8.80;;;4.90;99.90;;;;;;5061826;28;20564;-78
2020/12/07 09:13:24;;;;;;;26.70;8.70;;;4.90;99.90;;;;;;5062596;28;20025;-77
2020/12/07 09:15:49;;;;;;;19.25;8.80;;;4.90;99.90;;;;;;5064464;28;20021;-77
2020/12/07 09:18:15;;;;;;;13.38;7.55;;;4.90;99.90;;;;;;5063050;28;20335;-76
2020/12/07 09:20:41;;;;;;;19.88;7.65;;;4.90;99.90;;;;;;5064190;28;20028;-73
2020/12/07 09:23:06;;;;;;;16.05;8.32;;;4.90;99.90;;;;;;5064415;28;20415;-74
2020/12/07 09:25:32;;;;;;;16.88;7.10;;;4.90;99.90;;;;;;5064186;28;20149;-75
2020/12/07 09:27:58;;;;;;;20.92;6.68;;;4.90;99.90;;;;;;5063914;28;20061;-74
2020/12/07 09:30:23;;;;;;;17.13;7.00;;;4.90;99.90;;;;;;5064489;28;20017;-79
2020/12/07 09:32:49;;;;;;;14.02;6.47;;;4.90;99.90;;;;;;5064256;28;20079;-76
2020/12/07 09:35:15;;;;;;;9.15;4.75;;;4.90;99.90;;;;;;5064345;28;20055;-74
2020/12/07 09:37:41;;;;;;;17.90;4.70;;;5.00;99.90;;;;;;5064088;28;20104;-74
2020/12/07 09:40:12;;;;;;;10.43;3.58;;;4.90;99.90;;;;;;5054659;28;20170;-78
2020/12/07 09:42:39;;;;;;;9.13;3.38;;;5.00;99.90;;;;;;5059193;28;20034;-80
2020/12/07 09:45:06;;;;;;;7.60;3.70;;;4.90;99.90;;;;;;5044278;28;20025;-75
2020/12/07 09:47:32;;;;;;;16.52;3.08;;;4.90;99.90;;;;;;5043746;28;20359;-79
2020/12/07 09:49:58;;;;;;;5.50;2.30;;;4.90;99.90;;;;;;5047925;28;20089;-76
2020/12/07 09:52:23;;;;;;;4.22;2.28;;;4.90;99.90;;;;;;5046969;28;20056;-77
2020/12/07 09:54:50;;;;;;;6.47;2.22;;;4.90;99.90;;;;;;5046636;28;20449;-75
2020/12/07 09:57:18;;;;;;;4.25;2.17;;;4.90;99.90;;;;;;5048252;28;20390;-76
2020/12/07 09:59:47;;;;;;;3.72;1.67;;;4.90;99.90;;;;;;5046880;28;20037;-77
2020/12/07 10:02:15;;;;;;;2.38;1.75;;;4.90;99.90;;;;;;5048162;28;20409;-80
2020/12/07 10:04:41;;;;;;;2.60;1.55;;;4.90;99.90;;;;;;5045832;28;20072;-81
2020/12/07 10:07:07;;;;;;;4.25;2.05;;;4.90;99.90;;;;;;5047584;28;20017;-76
2020/12/07 10:09:32;;;;;;;3.85;2.42;;;4.90;99.90;;;;;;5047563;28;20130;-74
2020/12/07 10:11:58;;;;;;;5.00;2.95;;;4.90;99.90;;;;;;5047677;28;20044;-76
2020/12/07 10:14:24;;;;;;;3.88;2.40;;;4.90;99.90;;;;;;5047898;28;20022;-75
2020/12/07 10:16:52;;;;;;;3.20;1.67;;;4.90;99.90;;;;;;5046324;28;20089;-77
2020/12/07 10:19:19;;;;;;;4.63;2.50;;;5.00;99.90;;;;;;5051476;28;20523;-77
2020/12/07 10:21:44;;;;;;;3.78;2.00;;;5.10;99.90;;;;;;5065027;28;20082;-73
2020/12/07 10:24:10;;;;;;;5.53;2.97;;;5.00;99.90;;;;;;5064089;28;20053;-74
2020/12/07 10:26:35;;;;;;;2.95;2.15;;;5.00;99.90;;;;;;5047548;28;20032;-77
2020/12/07 10:29:02;;;;;;;4.93;2.35;;;5.10;99.90;;;;;;5046009;28;20132;-75
2020/12/07 10:31:27;;;;;;;5.65;2.67;;;5.10;99.90;;;;;;5047555;28;20018;-74
2020/12/07 10:33:54;;;;;;;4.25;2.53;;;5.00;99.90;;;;;;5046168;28;20439;-74
2020/12/07 10:36:21;;;;;;;3.55;2.20;;;5.00;99.90;;;;;;5046935;28;20025;-75
2020/12/07 10:38:49;;;;;;;4.82;2.28;;;5.00;99.90;;;;;;5046891;28;20036;-75
2020/12/07 10:41:14;;;;;;;3.10;1.67;;;5.00;99.90;;;;;;5047002;28;20029;-78
2020/12/07 10:43:41;;;;;;;10.02;2.53;;;5.00;99.90;;;;;;5046842;28;20029;-75
2020/12/07 10:46:07;;;;;;;3.40;1.70;;;5.00;99.90;;;;;;5053160;28;20560;-76
2020/12/07 10:48:33;;;;;;;3.45;2.63;;;5.00;99.90;;;;;;5065465;28;20105;-75
2020/12/07 10:50:59;;;;;;;3.58;2.20;;;4.90;99.90;;;;;;5065408;28;20028;-75
2020/12/07 10:53:29;;;;;;;4.82;2.20;;;4.90;99.90;;;;;;5065876;28;20017;-75
2020/12/07 10:55:55;;;;;;;2.17;1.63;;;4.90;99.90;;;;;;5065351;28;20036;-78
2020/12/07 10:58:21;;;;;;;4.28;2.08;;;4.90;99.90;;;;;;5066598;28;20104;-73
2020/12/07 11:00:51;;;;;;;3.65;2.53;;;4.90;99.90;;;;;;5065709;28;20462;-73
2020/12/07 11:03:19;;;;;;;4.57;2.80;;;4.90;99.90;;;;;;5067196;28;20049;-75
2020/12/07 11:05:45;;;;;;;5.05;2.70;;;4.90;99.90;;;;;;5066575;28;20402;-75
2020/12/07 11:08:34;;;;;;;3.45;2.80;;;4.80;99.90;;;;;;5068079;28;20736;-76
2020/12/07 11:11:00;;;;;;;5.78;2.95;;;4.80;99.90;;;;;;5065054;28;20052;-76
2020/12/07 11:13:30;;;;;;;5.07;2.90;;;4.80;99.90;;;;;;5065745;28;20017;-76
2020/12/07 11:16:01;;;;;;;4.38;2.88;;;4.80;99.90;;;;;;5072483;28;20013;-75
2020/12/07 11:18:31;;;;;;;5.35;2.63;;;4.80;99.90;;;;;;5066133;28;20025;-76
2020/12/07 11:20:57;;;;;;;5.00;2.92;;;4.90;99.90;;;;;;5065265;28;20086;-76
2020/12/07 11:23:23;;;;;;;9.05;3.92;;;4.80;99.90;;;;;;5066759;28;20082;-76
2020/12/07 11:25:51;;;;;;;8.30;3.72;;;4.80;99.90;;;;;;5066388;28;20021;-76
2020/12/07 11:28:20;;;;;;;6.47;3.65;;;4.80;99.90;;;;;;5064217;28;20036;-79
2020/12/07 11:30:46;;;;;;;9.88;3.88;;;4.80;99.90;;;;;;5065179;28;20025;-79
2020/12/07 11:33:11;;;;;;;3.90;2.22;;;4.80;99.90;;;;;;5066050;28;20021;-77
2020/12/07 11:35:37;;;;;;;12.30;4.35;;;4.90;99.90;;;;;;5064319;28;20129;-76
2020/12/07 11:38:09;;;;;;;9.02;4.07;;;4.80;99.90;;;;;;5063903;28;20031;-75
2020/12/07 11:45:44;;;;;;;5.22;3.97;;;4.80;99.90;;;;;;5065513;28;20029;-76
2020/12/07 11:48:11;;;;;;;6.60;3.97;;;4.80;99.90;;;;;;5065008;28;20583;-75
2020/12/07 11:50:37;;;;;;;9.70;4.47;;;4.70;99.90;;;;;;5063519;28;20369;-77
2020/12/07 11:53:03;;;;;;;4.95;3.35;;;4.80;99.90;;;;;;5064158;28;20025;-76
2020/12/07 11:55:29;;;;;;;9.90;4.35;;;4.80;99.90;;;;;;5065014;28;20023;-76
2020/12/07 11:57:55;;;;;;;7.35;4.45;;;4.90;99.90;;;;;;5065004;28;20072;-76
2020/12/07 12:00:21;;;;;;;11.25;4.25;;;4.90;99.90;;;;;;5064997;28;20032;-77
2020/12/07 12:02:46;;;;;;;8.73;4.72;;;4.80;99.90;;;;;;5065120;28;20041;-76
2020/12/07 12:05:12;;;;;;;10.45;4.65;;;4.80;99.90;;;;;;5065352;28;20025;-82
2020/12/07 12:07:38;;;;;;;7.97;4.45;;;4.90;99.90;;;;;;5064790;28;20056;-74
2020/12/07 12:10:03;;;;;;;8.25;4.65;;;4.90;99.90;;;;;;5063705;28;20090;-75
2020/12/07 12:12:29;;;;;;;10.60;5.78;;;4.90;99.90;;;;;;5065148;28;20029;-75
2020/12/07 12:14:54;;;;;;;12.18;5.53;;;4.90;99.90;;;;;;5064912;28;20036;-77
2020/12/07 12:17:20;;;;;;;9.07;4.93;;;4.90;99.90;;;;;;5063918;28;20025;-78
2020/12/07 12:19:46;;;;;;;9.93;4.57;;;4.90;99.90;;;;;;5065184;28;20036;-78
2020/12/07 12:22:11;;;;;;;14.20;5.32;;;4.90;99.90;;;;;;5064983;28;20076;-76
2020/12/07 12:24:37;;;;;;;9.07;4.72;;;4.90;99.90;;;;;;5064918;28;20742;-76
2020/12/07 12:27:02;;;;;;;12.07;5.60;;;4.90;99.90;;;;;;5063311;28;20047;-78
2020/12/07 12:29:28;;;;;;;10.30;4.20;;;4.90;99.90;;;;;;5063509;28;20036;-79
2020/12/07 12:31:54;;;;;;;11.85;5.75;;;5.00;99.90;;;;;;5064698;28;20077;-78
2020/12/07 12:34:19;;;;;;;11.27;5.20;;;4.90;99.90;;;;;;5062840;28;20021;-76
2020/12/07 12:36:48;;;;;;;14.38;6.22;;;5.00;99.90;;;;;;5062636;28;20381;-76
2020/12/07 12:39:14;;;;;;;9.70;5.25;;;5.00;99.90;;;;;;5064996;28;20048;-76
2020/12/07 12:41:39;;;;;;;11.60;6.15;;;5.00;99.90;;;;;;5064688;28;20071;-76
2020/12/07 12:44:08;;;;;;;13.80;6.28;;;5.00;99.90;;;;;;5063413;28;20020;-78
2020/12/07 12:46:35;;;;;;;12.45;5.68;;;5.10;99.90;;;;;;5063163;28;20044;-80
2020/12/07 12:49:00;;;;;;;10.18;5.40;;;5.10;99.90;;;;;;5064384;28;20128;-77
2020/12/07 12:51:26;;;;;;;14.52;6.93;;;5.10;99.90;;;;;;5063049;28;20404;-78
2020/12/07 12:53:51;;;;;;;13.55;6.13;;;5.10;99.90;;;;;;5062968;28;20131;-76
2020/12/07 12:56:17;;;;;;;9.77;4.97;;;5.10;99.90;;;;;;5063158;28;20032;-77
2020/12/07 12:58:42;;;;;;;11.45;5.50;;;5.20;99.90;;;;;;5062927;28;20101;-77
2020/12/07 13:01:08;;;;;;;15.32;6.15;;;5.20;99.90;;;;;;5063014;28;20017;-75
2020/12/07 13:03:34;;;;;;;10.85;5.97;;;5.20;99.90;;;;;;5062520;28;20045;-78
2020/12/07 13:06:03;;;;;;;12.05;7.03;;;5.20;99.90;;;;;;5063818;28;20013;-77
2020/12/07 13:08:29;;;;;;;19.90;7.22;;;5.20;99.90;;;;;;5064076;28;20057;-76
2020/12/07 13:11:01;;;;;;;16.60;6.45;;;5.20;99.90;;;;;;5062723;28;20028;-78
2020/12/07 13:13:27;;;;;;;6.78;3.90;;;5.30;99.90;;;;;;5062725;28;20021;-78